createdAt,value
2018-07-14T04:55:00.317Z,5.03
2018-07-14T04:56:07.472Z,6.57
2018-07-14T04:57:17.389Z,4.93
2018-07-14T04:58:26.434Z,4.70
2018-07-14T04:59:34.044Z,4.77
2018-07-14T05:00:42.028Z,5.10
2018-07-14T05:01:50.138Z,4.90
2018-07-14T05:03:00.875Z,4.47
2018-07-14T05:04:10.667Z,5.00
2018-07-14T05:05:17.685Z,4.93
2018-07-14T05:06:25.021Z,4.43
2018-07-14T05:07:32.327Z,4.93
2018-07-14T05:08:40.437Z,4.73
2018-07-14T05:09:47.664Z,4.13
2018-07-14T05:10:54.864Z,5.03
2018-07-14T05:12:02.512Z,4.77
2018-07-14T05:13:09.413Z,4.30
2018-07-14T05:14:16.815Z,4.60
2018-07-14T05:15:23.716Z,4.60
2018-07-14T05:16:30.778Z,5.57
2018-07-14T05:17:37.966Z,5.30
2018-07-14T05:18:44.310Z,4.60
2018-07-14T05:19:51.807Z,4.30
2018-07-14T05:20:58.005Z,4.90
2018-07-14T05:22:04.220Z,4.50
2018-07-14T05:23:10.912Z,4.80
2018-07-14T05:24:18.124Z,4.63
2018-07-14T05:25:24.436Z,4.37
2018-07-14T05:26:30.837Z,4.23
2018-07-14T05:27:40.751Z,4.70
2018-07-14T05:28:47.116Z,4.10
2018-07-14T05:29:53.351Z,4.17
2018-07-14T05:31:00.043Z,5.00
2018-07-14T05:32:07.936Z,3.93
2018-07-14T05:33:14.364Z,4.50
2018-07-14T05:34:20.820Z,4.67
2018-07-14T05:35:27.002Z,4.50
2018-07-14T05:36:35.980Z,4.00
2018-07-14T05:37:42.643Z,4.30
2018-07-14T05:38:48.758Z,3.60
2018-07-14T05:39:55.042Z,4.20
2018-07-14T05:41:01.650Z,4.10
2018-07-14T05:42:08.007Z,4.60
2018-07-14T05:43:14.288Z,3.30
2018-07-14T05:44:20.388Z,3.73
2018-07-14T05:45:27.531Z,3.70
2018-07-14T05:46:33.962Z,4.00
2018-07-14T05:47:40.268Z,3.80
2018-07-14T05:48:46.435Z,4.07
2018-07-14T05:49:52.573Z,3.73
2018-07-14T05:50:58.752Z,3.90
2018-07-14T05:52:05.335Z,3.60
2018-07-14T05:53:11.956Z,3.80
2018-07-14T05:54:18.368Z,3.60
2018-07-14T05:55:25.301Z,3.77
2018-07-14T05:56:31.420Z,4.10
2018-07-14T05:57:37.492Z,3.87
2018-07-14T05:58:43.622Z,3.93
2018-07-14T05:59:50.057Z,4.07
2018-07-14T06:00:57.374Z,3.90
2018-07-14T06:02:03.682Z,4.00
2018-07-14T06:03:10.636Z,4.00
2018-07-14T06:04:16.937Z,4.00
2018-07-14T06:05:24.487Z,4.10
2018-07-14T06:06:30.762Z,3.83
2018-07-14T06:07:38.806Z,4.57
2018-07-14T06:08:45.636Z,4.00
2018-07-14T06:09:52.667Z,3.93
2018-07-14T06:10:59.964Z,3.63
2018-07-14T06:12:09.120Z,3.90
2018-07-14T06:13:15.566Z,4.23
2018-07-14T06:14:22.600Z,3.90
2018-07-14T06:15:29.736Z,3.50
2018-07-14T06:16:36.846Z,3.67
2018-07-14T06:17:43.147Z,3.90
2018-07-14T06:18:49.512Z,3.77
2018-07-14T06:19:55.878Z,4.10
2018-07-14T06:21:02.142Z,3.87
2018-07-14T06:22:09.663Z,3.30
2018-07-14T06:23:15.865Z,3.93
2018-07-14T06:24:23.358Z,3.93
2018-07-14T06:25:29.652Z,4.00
2018-07-14T06:26:35.801Z,3.80
2018-07-14T06:27:44.295Z,3.83
2018-07-14T06:28:50.477Z,3.50
2018-07-14T06:29:57.516Z,3.73
2018-07-14T06:31:04.682Z,4.00
2018-07-14T06:32:10.906Z,3.90
2018-07-14T06:33:17.125Z,3.93
2018-07-14T06:34:24.784Z,3.57
2018-07-14T06:35:31.389Z,3.53
2018-07-14T06:36:38.476Z,3.80
2018-07-14T06:37:44.766Z,3.67
2018-07-14T06:38:50.938Z,3.77
2018-07-14T06:39:57.172Z,4.00
2018-07-14T06:41:03.514Z,4.00
2018-07-14T06:42:10.245Z,3.60
2018-07-14T06:43:17.319Z,3.67
2018-07-14T06:44:24.110Z,3.33
2018-07-14T06:45:30.390Z,3.40
2018-07-14T06:46:36.504Z,3.73
2018-07-14T06:47:42.908Z,4.17
2018-07-14T06:48:49.135Z,3.50
2018-07-14T06:49:58.748Z,3.53
2018-07-14T06:51:04.981Z,3.43
2018-07-14T06:52:11.631Z,3.37
2018-07-14T06:53:17.866Z,3.70
2018-07-14T06:54:24.189Z,3.63
2018-07-14T06:55:30.341Z,3.27
2018-07-14T06:56:36.334Z,3.87
2018-07-14T06:57:42.527Z,3.77
2018-07-14T06:58:49.074Z,3.87
2018-07-14T06:59:55.318Z,4.27
2018-07-14T07:01:01.524Z,3.23
2018-07-14T07:02:07.866Z,3.67
2018-07-14T07:03:14.983Z,3.50
2018-07-14T07:04:21.948Z,3.53
2018-07-14T07:05:28.107Z,3.50
2018-07-14T07:06:34.326Z,3.27
2018-07-14T07:07:42.008Z,2.83
2018-07-14T07:08:49.013Z,3.10
2018-07-14T07:09:55.198Z,3.30
2018-07-14T07:11:02.282Z,3.83
2018-07-14T07:12:08.944Z,3.20
2018-07-14T07:13:15.134Z,3.40
2018-07-14T07:14:22.419Z,3.13
2018-07-14T07:15:29.572Z,3.30
2018-07-14T07:16:35.932Z,4.00
2018-07-14T07:17:42.092Z,3.10
2018-07-14T07:18:49.054Z,3.23
2018-07-14T07:19:55.306Z,3.57
2018-07-14T07:21:04.156Z,2.97
2018-07-14T07:22:12.142Z,3.00
2018-07-14T07:23:19.538Z,3.40
2018-07-14T07:24:25.764Z,3.37
2018-07-14T07:25:32.052Z,3.27
2018-07-14T07:26:40.500Z,3.80
2018-07-14T07:27:48.003Z,3.37
2018-07-14T07:28:54.697Z,3.60
2018-07-14T07:30:00.968Z,2.83
2018-07-14T07:31:07.219Z,3.33
2018-07-14T07:32:13.666Z,3.23
2018-07-14T07:33:20.848Z,2.80
2018-07-14T07:34:29.699Z,3.23
2018-07-14T07:35:35.914Z,4.00
2018-07-14T07:36:42.236Z,3.70
2018-07-14T07:37:49.522Z,3.10
2018-07-14T07:38:55.685Z,2.93
2018-07-14T07:40:01.867Z,3.30
2018-07-14T07:41:08.100Z,3.23
2018-07-14T07:42:15.256Z,3.20
2018-07-14T07:43:21.591Z,3.23
2018-07-14T07:44:27.838Z,3.40
2018-07-14T07:45:34.526Z,3.13
2018-07-14T07:46:40.733Z,3.33
2018-07-14T07:47:48.044Z,3.60
2018-07-14T07:48:56.080Z,3.60
2018-07-14T07:50:03.233Z,3.50
2018-07-14T07:51:11.305Z,3.30
2018-07-14T07:52:18.359Z,3.37
2018-07-14T07:53:24.394Z,3.50
2018-07-14T07:54:33.199Z,3.10
2018-07-14T07:55:39.768Z,3.20
2018-07-14T07:56:46.434Z,3.57
2018-07-14T07:57:53.501Z,3.93
2018-07-14T07:59:00.684Z,3.83
2018-07-14T08:00:07.450Z,3.50
2018-07-14T08:01:13.669Z,3.23
2018-07-14T08:02:20.418Z,3.37
2018-07-14T08:03:28.540Z,3.47
2018-07-14T08:04:36.550Z,4.03
2018-07-14T08:05:44.798Z,3.27
2018-07-14T08:06:51.088Z,2.87
2018-07-14T08:07:57.876Z,3.47
2018-07-14T08:09:05.920Z,3.40
2018-07-14T08:10:15.151Z,3.33
2018-07-14T08:11:21.773Z,3.30
2018-07-14T08:12:28.083Z,3.13
2018-07-14T08:13:34.235Z,3.23
2018-07-14T08:14:41.421Z,3.53
2018-07-14T08:15:47.648Z,4.07
2018-07-14T08:16:54.737Z,3.30
2018-07-14T08:18:01.736Z,3.63
2018-07-14T08:19:10.932Z,3.00
2018-07-14T08:20:19.221Z,3.33
2018-07-14T08:21:26.480Z,3.00
2018-07-14T08:22:33.181Z,3.47
2018-07-14T08:23:39.406Z,3.10
2018-07-14T08:24:46.800Z,3.73
2018-07-14T08:25:54.307Z,3.70
2018-07-14T08:27:00.628Z,3.47
2018-07-14T08:28:07.806Z,3.50
2018-07-14T08:29:14.073Z,3.10
2018-07-14T08:30:21.155Z,3.37
2018-07-14T08:31:28.296Z,3.27
2018-07-14T08:32:34.363Z,3.30
2018-07-14T08:33:41.722Z,3.60
2018-07-14T08:34:48.903Z,3.43
2018-07-14T08:35:55.994Z,3.27
2018-07-14T08:37:02.314Z,3.07
2018-07-14T08:38:09.538Z,2.90
2018-07-14T08:39:15.752Z,3.63
2018-07-14T08:40:23.982Z,4.47
2018-07-14T08:41:30.290Z,3.47
2018-07-14T08:42:36.487Z,3.07
2018-07-14T08:43:43.470Z,3.30
2018-07-14T08:44:52.841Z,3.40
2018-07-14T08:46:00.740Z,4.17
2018-07-14T08:47:07.252Z,3.17
2018-07-14T08:48:13.364Z,3.57
2018-07-14T08:49:20.746Z,3.10
2018-07-14T08:50:27.347Z,3.70
2018-07-14T08:51:35.211Z,3.63
2018-07-14T08:52:41.550Z,3.30
2018-07-14T08:53:47.794Z,3.53
2018-07-14T08:54:53.963Z,3.37
2018-07-14T08:56:02.781Z,3.40
2018-07-14T08:57:09.843Z,3.20
2018-07-14T08:58:17.155Z,3.53
2018-07-14T08:59:23.282Z,3.17
2018-07-14T09:00:30.438Z,3.40
2018-07-14T09:01:36.687Z,2.60
2018-07-14T09:02:45.340Z,3.27
2018-07-14T09:03:52.466Z,3.43
2018-07-14T09:04:58.807Z,3.53
2018-07-14T09:06:05.364Z,3.00
2018-07-14T09:07:12.835Z,2.80
2018-07-14T09:08:19.503Z,3.20
2018-07-14T09:09:25.616Z,3.00
2018-07-14T09:10:32.916Z,2.70
2018-07-14T09:11:39.676Z,2.67
2018-07-14T09:12:46.648Z,3.13
2018-07-14T09:13:54.095Z,2.83
2018-07-14T09:15:00.253Z,2.93
2018-07-14T09:16:07.465Z,3.47
2018-07-14T09:17:13.688Z,3.13
2018-07-14T09:18:20.303Z,3.30
2018-07-14T09:19:28.596Z,3.60
2018-07-14T09:20:35.160Z,3.10
2018-07-14T09:21:42.377Z,2.60
2018-07-14T09:22:48.652Z,3.20
2018-07-14T09:23:55.094Z,3.30
2018-07-14T09:25:02.078Z,2.60
2018-07-14T09:26:10.629Z,2.77
2018-07-14T09:27:17.666Z,3.27
2018-07-14T09:28:28.070Z,3.23
2018-07-14T09:29:36.932Z,3.47
2018-07-14T09:30:47.857Z,3.40
2018-07-14T09:31:56.577Z,3.10
2018-07-14T09:33:07.799Z,2.93
2018-07-14T09:34:17.200Z,2.90
2018-07-14T09:35:26.152Z,3.30
2018-07-14T09:36:35.043Z,3.37
2018-07-14T09:37:43.414Z,3.33
2018-07-14T09:38:54.528Z,3.03
2018-07-14T09:40:04.161Z,3.37
2018-07-14T09:41:13.300Z,3.10
2018-07-14T09:42:21.955Z,2.77
2018-07-14T09:43:31.528Z,2.97
2018-07-14T09:44:40.497Z,2.63
2018-07-14T09:45:49.026Z,3.13
2018-07-14T09:46:59.048Z,3.60
2018-07-14T09:48:09.330Z,2.90
2018-07-14T09:49:15.752Z,3.63
2018-07-14T09:50:22.060Z,3.30
2018-07-14T09:51:30.720Z,3.30
2018-07-14T09:52:38.350Z,2.80
2018-07-14T09:53:45.898Z,2.90
2018-07-14T09:54:52.468Z,3.00
2018-07-14T09:55:59.451Z,2.60
2018-07-14T09:57:05.990Z,2.93
2018-07-14T09:58:13.176Z,3.30
2018-07-14T09:59:20.380Z,3.20
2018-07-14T10:00:32.674Z,2.67
2018-07-14T10:01:41.269Z,2.93
2018-07-14T10:02:49.335Z,3.37
2018-07-14T10:03:55.904Z,3.00
2018-07-14T10:05:02.636Z,2.90
2018-07-14T10:06:14.006Z,2.97
2018-07-14T10:07:20.318Z,3.03
2018-07-14T10:08:27.090Z,3.00
2018-07-14T10:09:33.428Z,3.30
2018-07-14T10:10:40.755Z,3.40
2018-07-14T10:11:47.204Z,2.80
2018-07-14T10:12:53.522Z,4.20
2018-07-14T10:14:01.018Z,2.90
2018-07-14T10:15:09.594Z,3.00
2018-07-14T10:16:19.317Z,2.50
2018-07-14T10:17:26.063Z,3.20
2018-07-14T10:18:33.058Z,2.70
2018-07-14T10:19:39.480Z,3.30
2018-07-14T10:20:46.717Z,3.30
2018-07-14T10:21:54.038Z,3.20
2018-07-14T10:23:01.620Z,3.00
2018-07-14T10:24:08.843Z,3.20
2018-07-14T10:25:15.214Z,3.70
2018-07-14T10:26:21.506Z,3.33
2018-07-14T10:27:28.248Z,3.67
2018-07-14T10:28:35.645Z,3.23
2018-07-14T10:29:41.869Z,4.00
2018-07-14T10:30:48.042Z,3.60
2018-07-14T10:31:54.164Z,3.80
2018-07-14T10:33:00.280Z,3.87
2018-07-14T10:34:08.386Z,3.30
2018-07-14T10:35:15.641Z,3.63
2018-07-14T10:36:22.037Z,3.80
2018-07-14T10:37:28.994Z,3.93
2018-07-14T10:38:36.935Z,3.37
2018-07-14T10:39:43.206Z,3.60
2018-07-14T10:40:49.433Z,3.57
2018-07-14T10:41:56.451Z,3.50
2018-07-14T10:43:03.714Z,4.00
2018-07-14T10:44:09.912Z,4.10
2018-07-14T10:45:16.244Z,4.03
2018-07-14T10:46:22.395Z,3.50
2018-07-14T10:47:29.478Z,3.60
2018-07-14T10:48:38.380Z,4.27
2018-07-14T10:49:44.970Z,3.80
2018-07-14T10:50:53.403Z,4.13
2018-07-14T10:52:02.173Z,4.17
2018-07-14T10:53:11.697Z,4.27
2018-07-14T10:54:19.844Z,3.50
2018-07-14T10:55:25.945Z,4.70
2018-07-14T10:56:32.588Z,3.60
2018-07-14T10:57:38.803Z,3.87
2018-07-14T10:58:45.237Z,4.00
2018-07-14T10:59:52.103Z,3.37
2018-07-14T11:01:00.759Z,3.57
2018-07-14T11:02:08.372Z,3.60
2018-07-14T11:03:15.385Z,3.60
2018-07-14T11:04:22.509Z,3.40
2018-07-14T11:05:30.724Z,4.10
2018-07-14T11:06:37.128Z,3.80
2018-07-14T11:07:44.527Z,3.90
2018-07-14T11:08:50.688Z,3.50
2018-07-14T11:09:56.632Z,4.20
2018-07-14T11:11:04.367Z,3.90
2018-07-14T11:12:10.468Z,3.90
2018-07-14T11:13:21.207Z,4.07
2018-07-14T11:14:31.252Z,3.73
2018-07-14T11:15:37.880Z,3.60
2018-07-14T11:16:45.645Z,4.07
2018-07-14T11:17:52.610Z,3.60
2018-07-14T11:18:58.675Z,4.37
2018-07-14T11:20:05.229Z,4.10
2018-07-14T11:21:11.651Z,3.70
2018-07-14T11:22:18.597Z,4.07
2018-07-14T11:23:28.367Z,3.43
2018-07-14T11:24:34.549Z,3.90
2018-07-14T11:25:41.493Z,4.13
2018-07-14T11:26:51.842Z,4.20
2018-07-14T11:28:01.236Z,3.57
2018-07-14T11:29:09.499Z,3.47
2018-07-14T11:30:16.117Z,4.33
2018-07-14T11:31:22.267Z,3.70
2018-07-14T11:32:28.249Z,3.83
2018-07-14T11:33:36.599Z,3.77
2018-07-14T11:34:42.486Z,3.90
2018-07-14T11:35:48.525Z,4.10
2018-07-14T11:36:56.419Z,3.83
2018-07-14T11:38:02.471Z,3.67
2018-07-14T11:39:08.853Z,4.30
2018-07-14T11:40:17.155Z,4.70
2018-07-14T11:41:24.231Z,4.57
2018-07-14T11:42:30.539Z,4.27
2018-07-14T11:43:37.289Z,3.93
2018-07-14T11:44:44.454Z,3.90
2018-07-14T11:45:52.751Z,4.20
2018-07-14T11:47:00.166Z,4.00
2018-07-14T11:48:07.093Z,4.17
2018-07-14T11:49:13.348Z,4.33
2018-07-14T11:50:19.577Z,4.03
2018-07-14T11:51:26.040Z,4.07
2018-07-14T11:52:33.023Z,4.27
2018-07-14T11:53:41.812Z,4.10
2018-07-14T11:54:49.413Z,3.83
2018-07-14T11:55:55.549Z,4.23
2018-07-14T11:57:01.567Z,4.13
2018-07-14T11:58:07.399Z,4.40
2018-07-14T11:59:14.358Z,3.77
2018-07-14T12:00:21.491Z,4.13
2018-07-14T12:01:28.823Z,3.80
2018-07-14T12:02:35.051Z,4.10
2018-07-14T12:03:42.751Z,4.20
2018-07-14T12:04:49.736Z,4.80
2018-07-14T12:05:55.949Z,4.07
2018-07-14T12:07:01.961Z,4.70
2018-07-14T12:08:11.025Z,4.23
2018-07-14T12:09:17.194Z,3.93
2018-07-14T12:10:23.238Z,4.60
2018-07-14T12:11:29.381Z,4.33
2018-07-14T12:12:35.885Z,4.33
2018-07-14T12:13:42.733Z,4.20
2018-07-14T12:14:49.311Z,4.50
2018-07-14T12:15:55.830Z,4.17
2018-07-14T12:17:04.769Z,4.40
2018-07-14T12:18:11.186Z,4.27
2018-07-14T12:19:19.228Z,4.40
2018-07-14T12:20:25.505Z,4.13
2018-07-14T12:21:31.477Z,3.93
2018-07-14T12:22:37.519Z,4.10
2018-07-14T12:23:44.888Z,3.90
2018-07-14T12:24:51.140Z,3.77
2018-07-14T12:25:57.994Z,4.07
2018-07-14T12:27:04.156Z,4.20
2018-07-14T12:28:10.257Z,4.30
2018-07-14T12:29:16.377Z,4.20
2018-07-14T12:30:22.587Z,3.70
2018-07-14T12:31:29.551Z,4.43
2018-07-14T12:32:36.212Z,5.10
2018-07-14T12:33:43.217Z,5.30
2018-07-14T12:34:50.147Z,4.27
2018-07-14T12:35:56.868Z,4.20
2018-07-14T12:37:06.606Z,4.50
2018-07-14T12:38:12.549Z,4.70
2018-07-14T12:39:20.040Z,4.87
2018-07-14T12:40:26.340Z,4.00
2018-07-14T12:41:32.504Z,4.60
2018-07-14T12:42:38.574Z,4.50
2018-07-14T12:43:46.671Z,4.10
2018-07-14T12:44:52.818Z,4.23
2018-07-14T12:45:59.200Z,5.20
2018-07-14T12:47:05.470Z,4.43
2018-07-14T12:48:12.052Z,4.80
2018-07-14T12:49:18.215Z,4.40
2018-07-14T12:50:25.271Z,4.23
2018-07-14T12:51:31.634Z,4.33
2018-07-14T12:52:38.973Z,4.30
2018-07-14T12:53:45.260Z,4.00
2018-07-14T12:54:51.320Z,4.40
2018-07-14T12:55:58.603Z,4.13
2018-07-14T12:57:05.665Z,4.30
2018-07-14T12:58:13.682Z,4.10
2018-07-14T12:59:20.916Z,4.07
2018-07-14T13:00:27.152Z,4.53
2018-07-14T13:01:33.277Z,4.53
2018-07-14T13:02:43.538Z,4.17
2018-07-14T13:03:50.902Z,4.53
2018-07-14T13:04:57.234Z,5.00
2018-07-14T13:06:03.382Z,4.43
2018-07-14T13:07:09.537Z,4.47
2018-07-14T13:08:15.782Z,4.53
2018-07-14T13:09:21.805Z,4.30
2018-07-14T13:10:27.928Z,4.33
2018-07-14T13:11:34.075Z,4.80
2018-07-14T13:12:40.278Z,4.17
2018-07-14T13:13:46.381Z,4.47
2018-07-14T13:14:52.497Z,4.70
2018-07-14T13:16:00.166Z,4.63
2018-07-14T13:17:07.472Z,4.30
2018-07-14T13:18:13.672Z,4.30
2018-07-14T13:19:20.633Z,4.53
2018-07-14T13:20:26.768Z,4.30
2018-07-14T13:21:32.902Z,4.37
2018-07-14T13:22:39.058Z,4.50
2018-07-14T13:23:45.088Z,4.20
2018-07-14T13:24:51.389Z,4.47
2018-07-14T13:25:58.922Z,5.03
2018-07-14T13:27:05.244Z,5.00
2018-07-14T13:28:11.358Z,4.50
2018-07-14T13:29:18.375Z,4.40
2018-07-14T13:30:25.930Z,4.20
2018-07-14T13:31:32.634Z,4.93
2018-07-14T13:32:40.270Z,4.10
2018-07-14T13:33:46.326Z,4.30
2018-07-14T13:34:52.868Z,4.00
2018-07-14T13:35:59.910Z,4.17
2018-07-14T13:37:07.074Z,4.87
2018-07-14T13:38:13.115Z,4.57
2018-07-14T13:39:20.096Z,4.83
2018-07-14T13:40:26.190Z,4.57
2018-07-14T13:41:33.689Z,4.53
2018-07-14T13:42:41.466Z,4.63
2018-07-14T13:43:48.019Z,4.13
2018-07-14T13:44:55.028Z,4.50
2018-07-14T13:46:01.320Z,4.37
2018-07-14T13:47:08.922Z,4.03
2018-07-14T13:48:21.322Z,4.27
2018-07-14T13:49:29.714Z,4.50
2018-07-14T13:50:36.234Z,4.53
2018-07-14T13:51:42.375Z,4.20
2018-07-14T13:52:48.448Z,4.00
2018-07-14T13:53:55.554Z,4.70
2018-07-14T13:55:01.700Z,4.17
2018-07-14T13:56:08.748Z,4.50
2018-07-14T13:57:14.993Z,4.00
2018-07-14T13:58:21.082Z,4.73
2018-07-14T13:59:28.433Z,5.13
2018-07-14T14:00:35.370Z,4.20
2018-07-14T14:01:41.496Z,4.10
2018-07-14T14:02:48.602Z,4.50
2018-07-14T14:03:54.579Z,4.63
2018-07-14T14:05:01.501Z,3.97
2018-07-14T14:06:10.125Z,4.80
2018-07-14T14:07:16.303Z,4.23
2018-07-14T14:08:24.329Z,4.03
2018-07-14T14:09:30.440Z,4.27
2018-07-14T14:10:36.518Z,4.43
2018-07-14T14:11:43.329Z,4.50
2018-07-14T14:12:49.481Z,4.63
2018-07-14T14:13:59.703Z,4.17
2018-07-14T14:15:06.107Z,4.23
2018-07-14T14:16:12.368Z,4.30
2018-07-14T14:17:18.259Z,4.80
2018-07-14T14:18:24.638Z,4.47
2018-07-14T14:19:33.071Z,4.43
2018-07-14T14:20:39.283Z,4.13
2018-07-14T14:21:45.743Z,4.53
2018-07-14T14:22:53.363Z,4.40
2018-07-14T14:23:59.285Z,4.30
2018-07-14T14:25:06.357Z,5.00
2018-07-14T14:26:13.799Z,4.70
2018-07-14T14:27:19.997Z,4.37
2018-07-14T14:28:26.253Z,4.00
2018-07-14T14:29:32.280Z,4.23
2018-07-14T14:30:39.080Z,4.20
2018-07-14T14:31:46.771Z,4.10
2018-07-14T14:32:54.500Z,4.27
2018-07-14T14:34:00.439Z,4.53
2018-07-14T14:35:06.564Z,4.80
2018-07-14T14:36:12.637Z,4.30
2018-07-14T14:37:24.109Z,4.43
2018-07-14T14:38:30.212Z,4.50
2018-07-14T14:39:36.581Z,4.87
2018-07-14T14:40:42.616Z,4.10
2018-07-14T14:41:48.782Z,4.30
2018-07-14T14:42:56.546Z,4.30
2018-07-14T14:44:03.718Z,4.40
2018-07-14T14:45:10.486Z,3.73
2018-07-14T14:46:17.815Z,5.03
2018-07-14T14:47:24.781Z,4.37
2018-07-14T14:48:31.289Z,4.00
2018-07-14T14:49:38.561Z,4.47
2018-07-14T14:50:44.545Z,4.43
2018-07-14T14:51:50.466Z,4.50
2018-07-14T14:52:56.568Z,4.10
2018-07-14T14:54:02.612Z,4.20
2018-07-14T14:55:09.659Z,4.30
2018-07-14T14:56:15.720Z,4.50
2018-07-14T14:57:21.854Z,4.23
2018-07-14T14:58:28.861Z,4.50
2018-07-14T14:59:35.036Z,3.90
2018-07-14T15:00:41.494Z,4.30
2018-07-14T15:01:47.965Z,3.87
2018-07-14T15:02:56.453Z,4.37
2018-07-14T15:04:03.042Z,4.77
2018-07-14T15:05:09.100Z,4.70
2018-07-14T15:06:15.285Z,4.50
2018-07-14T15:07:22.120Z,3.80
2018-07-14T15:08:29.523Z,3.93
2018-07-14T15:09:38.419Z,4.57
2018-07-14T15:10:46.481Z,3.80
2018-07-14T15:11:54.435Z,4.00
2018-07-14T15:13:01.479Z,4.43
2018-07-14T15:14:08.534Z,3.97
2018-07-14T15:15:14.717Z,4.30
2018-07-14T15:16:20.855Z,3.80
2018-07-14T15:17:26.977Z,4.47
2018-07-14T15:18:33.256Z,4.17
2018-07-14T15:19:39.805Z,4.53
2018-07-14T15:20:46.646Z,4.17
2018-07-14T15:21:53.772Z,4.60
2018-07-14T15:23:00.027Z,3.80
2018-07-14T15:24:07.039Z,4.80
2018-07-14T15:25:13.506Z,4.77
2018-07-14T15:26:21.461Z,5.03
2018-07-14T15:27:27.588Z,4.20
2018-07-14T15:28:33.565Z,4.30
2018-07-14T15:29:39.563Z,4.87
2018-07-14T15:30:45.931Z,4.53
2018-07-14T15:31:52.070Z,3.80
2018-07-14T15:32:58.415Z,4.30
2018-07-14T15:34:04.444Z,4.40
2018-07-14T15:35:10.619Z,4.63
2018-07-14T15:36:16.693Z,4.33
2018-07-14T15:37:23.703Z,4.77
2018-07-14T15:38:30.797Z,4.50
2018-07-14T15:39:36.857Z,4.10
2018-07-14T15:40:43.443Z,4.30
2018-07-14T15:41:49.488Z,4.90
2018-07-14T15:42:55.653Z,4.60
2018-07-14T15:44:01.689Z,4.27
2018-07-14T15:45:08.153Z,4.80
2018-07-14T15:46:14.183Z,4.20
2018-07-14T15:47:20.821Z,3.80
2018-07-14T15:48:28.580Z,4.37
2018-07-14T15:49:36.025Z,4.53
2018-07-14T15:50:42.485Z,4.83
2018-07-14T15:51:48.649Z,4.20
2018-07-14T15:52:54.677Z,4.13
2018-07-14T15:54:00.732Z,4.40
2018-07-14T15:55:06.997Z,4.50
2018-07-14T15:56:14.641Z,4.20
2018-07-14T15:57:21.635Z,4.40
2018-07-14T15:58:27.752Z,4.40
2018-07-14T15:59:39.165Z,4.90
2018-07-14T16:00:45.216Z,4.27
2018-07-14T16:01:52.211Z,4.60
2018-07-14T16:02:58.417Z,4.60
2018-07-14T16:04:04.551Z,4.27
2018-07-14T16:05:11.665Z,4.57
2018-07-14T16:06:18.249Z,4.70
2018-07-14T16:07:24.353Z,3.93
2018-07-14T16:08:30.415Z,4.90
2018-07-14T16:09:37.203Z,4.13
2018-07-14T16:10:43.423Z,4.40
2018-07-14T16:11:49.903Z,4.50
2018-07-14T16:12:57.489Z,4.33
2018-07-14T16:14:05.656Z,4.87
2018-07-14T16:15:11.594Z,4.60
2018-07-14T16:16:17.699Z,4.53
2018-07-14T16:17:25.749Z,4.27
2018-07-14T16:18:33.666Z,4.50
2018-07-14T16:19:40.529Z,4.23
2018-07-14T16:20:46.914Z,4.50
2018-07-14T16:21:53.273Z,4.30
2018-07-14T16:22:59.450Z,4.17
2018-07-14T16:24:05.530Z,5.63
2018-07-14T16:25:11.595Z,4.37
2018-07-14T16:26:17.577Z,4.13
2018-07-14T16:27:23.927Z,4.87
2018-07-14T16:28:32.159Z,4.50
2018-07-14T16:29:40.155Z,4.73
2018-07-14T16:30:46.379Z,4.40
2018-07-14T16:31:54.078Z,4.30
2018-07-14T16:33:00.567Z,4.80
2018-07-14T16:34:06.544Z,4.43
2018-07-14T16:35:14.777Z,3.97
2018-07-14T16:36:22.221Z,4.87
2018-07-14T16:37:28.764Z,4.23
2018-07-14T16:38:35.890Z,4.60
2018-07-14T16:39:43.225Z,4.23
2018-07-14T16:40:54.947Z,3.80
2018-07-14T16:42:00.834Z,4.67
2018-07-14T16:43:07.095Z,5.10
2018-07-14T16:44:13.091Z,4.37
2018-07-14T16:45:19.157Z,4.47
2018-07-14T16:47:36.011Z,4.77
2018-07-14T16:48:42.100Z,4.80
2018-07-14T16:49:48.130Z,4.30
2018-07-14T16:50:54.126Z,5.20
2018-07-14T16:52:00.301Z,4.67
2018-07-14T16:53:07.426Z,4.63
2018-07-14T16:54:13.571Z,4.47
2018-07-14T16:55:29.584Z,4.70
2018-07-14T16:56:36.034Z,4.57
2018-07-14T16:57:42.492Z,4.73
2018-07-14T16:58:49.561Z,4.97
2018-07-14T16:59:56.127Z,5.30
2018-07-14T17:01:03.402Z,5.60
2018-07-14T17:02:10.021Z,4.80
2018-07-14T17:03:16.594Z,5.40
2018-07-14T17:04:24.350Z,4.90
2018-07-14T17:05:30.753Z,5.37
2018-07-14T17:06:37.111Z,5.03
2018-07-14T17:07:43.775Z,5.07
2018-07-14T17:08:50.075Z,5.80
2018-07-14T17:09:56.325Z,5.13
2018-07-14T17:11:03.208Z,5.10
2018-07-14T17:12:10.111Z,4.70
2018-07-14T17:13:18.233Z,5.70
2018-07-14T17:14:25.061Z,4.83
2018-07-14T17:15:31.613Z,4.90
2018-07-14T17:16:37.938Z,5.83
2018-07-14T17:17:47.551Z,4.73
2018-07-14T17:18:53.983Z,5.40
2018-07-14T17:20:01.256Z,5.10
2018-07-14T17:21:07.834Z,5.30
2018-07-14T17:22:14.287Z,5.53
2018-07-14T17:23:21.345Z,4.70
2018-07-14T17:24:27.810Z,4.93
2018-07-14T17:25:34.102Z,4.63
2018-07-14T17:26:41.353Z,5.03
2018-07-14T17:27:47.908Z,5.03
2018-07-14T17:28:55.633Z,5.87
2018-07-14T17:30:02.213Z,4.90
2018-07-14T17:31:10.921Z,5.67
2018-07-14T17:32:17.230Z,5.20
2018-07-14T17:33:23.892Z,5.10
2018-07-14T17:34:31.616Z,5.67
2018-07-14T17:35:37.929Z,5.00
2018-07-14T17:36:44.095Z,5.53
2018-07-14T17:37:52.634Z,5.97
2018-07-14T17:38:59.628Z,5.93
2018-07-14T17:40:06.295Z,5.90
2018-07-14T17:41:13.650Z,4.43
2018-07-14T17:42:20.458Z,5.50
2018-07-14T17:43:28.826Z,5.27
2018-07-14T17:44:35.047Z,5.60
2018-07-14T17:45:41.422Z,5.73
2018-07-14T17:46:48.833Z,5.97
2018-07-14T17:47:56.672Z,5.70
2018-07-14T17:49:03.183Z,5.93
2018-07-14T17:50:09.493Z,5.43
2018-07-14T17:51:18.163Z,5.30
2018-07-14T17:52:24.936Z,5.93
2018-07-14T17:53:31.954Z,6.00
2018-07-14T17:54:39.396Z,5.30
2018-07-14T17:55:45.646Z,5.60
2018-07-14T17:56:52.574Z,6.00
2018-07-14T17:58:01.774Z,5.77
2018-07-14T17:59:10.375Z,5.33
2018-07-14T18:00:16.735Z,5.50
2018-07-14T18:01:23.845Z,5.90
2018-07-14T18:02:30.338Z,5.83
2018-07-14T18:03:38.826Z,6.00
2018-07-14T18:04:46.453Z,5.97
2018-07-14T18:05:54.318Z,5.70
2018-07-14T18:07:00.628Z,6.03
2018-07-14T18:08:07.110Z,5.60
2018-07-14T18:09:14.316Z,5.70
2018-07-14T18:10:21.785Z,6.17
2018-07-14T18:11:30.214Z,5.50
2018-07-14T18:12:36.582Z,5.80
2018-07-14T18:13:42.736Z,5.80
2018-07-14T18:14:48.911Z,6.03
2018-07-14T18:15:55.472Z,5.77
2018-07-14T18:17:01.866Z,5.77
2018-07-14T18:18:08.662Z,5.67
2018-07-14T18:19:14.767Z,7.20
2018-07-14T18:20:21.756Z,5.97
2018-07-14T18:21:29.561Z,6.03
2018-07-14T18:22:43.772Z,7.10
2018-07-14T18:23:50.467Z,6.00
2018-07-14T18:24:57.388Z,6.47
2018-07-14T18:26:04.094Z,6.97
2018-07-14T18:27:10.565Z,5.93
2018-07-14T18:28:17.384Z,6.40
2018-07-14T18:29:25.039Z,6.57
2018-07-14T18:30:32.815Z,5.67
2018-07-14T18:31:39.382Z,6.60
2018-07-14T18:32:45.901Z,6.53
2018-07-14T18:33:52.675Z,6.30
2018-07-14T18:35:00.161Z,6.27
2018-07-14T18:36:08.787Z,5.83
2018-07-14T18:37:16.381Z,6.77
2018-07-14T18:38:22.968Z,7.47
2018-07-14T18:39:30.905Z,6.43
2018-07-14T18:40:39.020Z,6.40
2018-07-14T18:41:45.996Z,5.80
2018-07-14T18:42:58.426Z,6.33
2018-07-14T18:44:06.413Z,6.30
2018-07-14T18:45:13.486Z,6.57
2018-07-14T18:46:22.721Z,6.60
2018-07-14T18:47:31.990Z,7.03
2018-07-14T18:48:39.043Z,6.43
2018-07-14T18:49:47.543Z,6.17
2018-07-14T18:50:55.908Z,6.67
2018-07-14T18:52:04.777Z,6.23
2018-07-14T18:53:11.467Z,7.20
2018-07-14T18:54:18.001Z,6.50
2018-07-14T18:55:25.265Z,6.40
2018-07-14T18:56:32.121Z,6.93
2018-07-14T18:57:39.238Z,6.20
2018-07-14T18:58:47.121Z,6.00
2018-07-14T18:59:56.090Z,5.77
2018-07-14T19:01:03.894Z,6.73
2018-07-14T19:02:10.989Z,6.23
2018-07-14T19:03:17.459Z,6.00
2018-07-14T19:04:24.404Z,6.90
2018-07-14T19:05:32.553Z,6.00
2018-07-14T19:06:39.046Z,6.50
2018-07-14T19:07:45.413Z,6.20
2018-07-14T19:08:52.120Z,6.47
2018-07-14T19:09:58.917Z,6.90
2018-07-14T19:11:05.594Z,6.27
2018-07-14T19:12:12.114Z,6.10
2018-07-14T19:13:19.099Z,6.30
2018-07-14T19:14:26.785Z,6.23
2018-07-14T19:15:33.642Z,6.10
2018-07-14T19:16:41.621Z,6.33
2018-07-14T19:17:48.236Z,6.87
2018-07-14T19:18:56.152Z,6.33
2018-07-14T19:20:02.490Z,6.33
2018-07-14T19:21:09.108Z,6.57
2018-07-14T19:22:15.686Z,6.30
2018-07-14T19:23:22.246Z,7.00
2018-07-14T19:24:31.020Z,6.27
2018-07-14T19:25:37.867Z,6.70
2018-07-14T19:26:44.772Z,6.67
2018-07-14T19:27:51.420Z,6.10
2018-07-14T19:28:58.174Z,5.57
2018-07-14T19:30:04.746Z,6.57
2018-07-14T19:31:12.085Z,6.47
2018-07-14T19:32:22.183Z,6.03
2018-07-14T19:33:29.369Z,6.10
2018-07-14T19:34:36.176Z,6.43
2018-07-14T19:35:43.084Z,6.60
2018-07-14T19:36:49.617Z,6.90
2018-07-14T19:37:56.979Z,6.60
2018-07-14T19:39:04.538Z,6.17
2018-07-14T19:40:10.940Z,6.00
2018-07-14T19:41:18.622Z,5.47
2018-07-14T19:42:25.902Z,5.77
2018-07-14T19:43:32.327Z,6.10
2018-07-14T19:44:39.102Z,6.77
2018-07-14T19:45:45.526Z,6.00
2018-07-14T19:46:52.057Z,5.87
2018-07-14T19:47:58.832Z,6.30